sensor_id;sensor_type;location;lat;lon;timestamp;P1;durP1;ratioP1;P2;durP2;ratioP2
48285;SDS011;34102;47.716;10.296;2024-03-08T03:47:10;18.75;;;10.65;;
48285;SDS011;34102;47.716;10.296;2024-03-08T03:49:36;18.67;;;11.45;;
48285;SDS011;34102;47.716;10.296;2024-03-08T03:52:02;15.95;;;9.77;;
48285;SDS011;34102;47.716;10.296;2024-03-08T03:54:30;18.63;;;10.38;;
48285;SDS011;34102;47.716;10.296;2024-03-08T03:57:01;19.05;;;10.55;;
48285;SDS011;34102;47.716;10.296;2024-03-08T03:59:28;19.55;;;10.82;;
48285;SDS011;34102;47.716;10.296;2024-03-08T04:01:54;18.27;;;11.02;;
48285;SDS011;34102;47.716;10.296;2024-03-08T04:04:23;17.80;;;10.45;;
48285;SDS011;34102;47.716;10.296;2024-03-08T04:06:52;15.00;;;9.70;;
48285;SDS011;34102;47.716;10.296;2024-03-08T04:09:18;16.55;;;9.85;;
48285;SDS011;34102;47.716;10.296;2024-03-08T04:11:48;18.25;;;10.35;;
48285;SDS011;34102;47.716;10.296;2024-03-08T04:14:13;17.52;;;10.52;;
48285;SDS011;34102;47.716;10.296;2024-03-08T04:16:38;16.60;;;10.23;;
48285;SDS011;34102;47.716;10.296;2024-03-08T04:19:04;16.98;;;9.90;;
48285;SDS011;34102;47.716;10.296;2024-03-08T04:21:30;16.45;;;9.57;;
48285;SDS011;34102;47.716;10.296;2024-03-08T04:23:55;16.50;;;9.85;;
48285;SDS011;34102;47.716;10.296;2024-03-08T04:26:22;17.15;;;10.52;;
48285;SDS011;34102;47.716;10.296;2024-03-08T04:28:47;17.55;;;9.93;;
48285;SDS011;34102;47.716;10.296;2024-03-08T04:31:13;19.25;;;11.32;;
48285;SDS011;34102;47.716;10.296;2024-03-08T04:33:39;17.23;;;10.15;;
48285;SDS011;34102;47.716;10.296;2024-03-08T04:36:04;16.35;;;9.40;;
48285;SDS011;34102;47.716;10.296;2024-03-08T04:38:30;17.17;;;10.00;;
48285;SDS011;34102;47.716;10.296;2024-03-08T04:40:56;17.02;;;10.05;;
48285;SDS011;34102;47.716;10.296;2024-03-08T04:43:22;15.07;;;9.48;;
48285;SDS011;34102;47.716;10.296;2024-03-08T04:45:50;16.15;;;9.50;;
48285;SDS011;34102;47.716;10.296;2024-03-08T04:48:15;18.13;;;11.13;;
48285;SDS011;34102;47.716;10.296;2024-03-08T04:50:41;17.30;;;9.88;;
48285;SDS011;34102;47.716;10.296;2024-03-08T04:53:06;16.88;;;9.85;;
48285;SDS011;34102;47.716;10.296;2024-03-08T04:55:33;20.42;;;9.93;;
48285;SDS011;34102;47.716;10.296;2024-03-08T04:57:59;17.50;;;10.05;;
48285;SDS011;34102;47.716;10.296;2024-03-08T05:00:24;16.05;;;9.43;;
48285;SDS011;34102;47.716;10.296;2024-03-08T05:02:50;15.63;;;9.68;;
48285;SDS011;34102;47.716;10.296;2024-03-08T05:05:18;16.52;;;10.18;;
48285;SDS011;34102;47.716;10.296;2024-03-08T05:07:46;17.73;;;10.43;;
48285;SDS011;34102;47.716;10.296;2024-03-08T05:10:11;16.83;;;9.85;;
48285;SDS011;34102;47.716;10.296;2024-03-08T05:12:37;15.57;;;10.10;;
48285;SDS011;34102;47.716;10.296;2024-03-08T05:15:06;15.70;;;9.63;;
48285;SDS011;34102;47.716;10.296;2024-03-08T05:17:32;18.17;;;9.80;;
48285;SDS011;34102;47.716;10.296;2024-03-08T05:19:58;15.40;;;8.95;;
48285;SDS011;34102;47.716;10.296;2024-03-08T05:22:23;16.77;;;10.48;;
48285;SDS011;34102;47.716;10.296;2024-03-08T05:24:49;15.63;;;9.48;;
48285;SDS011;34102;47.716;10.296;2024-03-08T05:27:14;18.13;;;10.20;;
48285;SDS011;34102;47.716;10.296;2024-03-08T05:29:39;14.52;;;9.02;;
48285;SDS011;34102;47.716;10.296;2024-03-08T05:32:05;15.00;;;9.85;;
48285;SDS011;34102;47.716;10.296;2024-03-08T05:34:30;15.80;;;9.38;;
48285;SDS011;34102;47.716;10.296;2024-03-08T05:36:58;14.13;;;9.05;;
48285;SDS011;34102;47.716;10.296;2024-03-08T05:39:26;14.55;;;9.32;;
48285;SDS011;34102;47.716;10.296;2024-03-08T05:41:52;14.98;;;9.10;;
48285;SDS011;34102;47.716;10.296;2024-03-08T05:44:18;15.93;;;9.43;;
48285;SDS011;34102;47.716;10.296;2024-03-08T05:46:43;15.60;;;9.55;;
48285;SDS011;34102;47.716;10.296;2024-03-08T05:49:10;15.15;;;9.25;;
48285;SDS011;34102;47.716;10.296;2024-03-08T05:51:37;16.30;;;8.88;;
48285;SDS011;34102;47.716;10.296;2024-03-08T05:54:04;13.80;;;8.40;;
48285;SDS011;34102;47.716;10.296;2024-03-08T05:56:35;14.55;;;8.82;;
48285;SDS011;34102;47.716;10.296;2024-03-08T05:59:01;14.07;;;8.68;;
48285;SDS011;34102;47.716;10.296;2024-03-08T06:01:26;16.60;;;8.45;;
48285;SDS011;34102;47.716;10.296;2024-03-08T06:03:54;15.70;;;9.05;;
48285;SDS011;34102;47.716;10.296;2024-03-08T06:06:24;13.68;;;8.13;;
48285;SDS011;34102;47.716;10.296;2024-03-08T06:08:51;12.07;;;7.93;;
48285;SDS011;34102;47.716;10.296;2024-03-08T06:11:17;12.68;;;7.53;;
48285;SDS011;34102;47.716;10.296;2024-03-08T06:13:44;14.95;;;8.38;;
48285;SDS011;34102;47.716;10.296;2024-03-08T06:16:09;15.48;;;8.57;;
48285;SDS011;34102;47.716;10.296;2024-03-08T06:18:35;11.55;;;7.05;;
48285;SDS011;34102;47.716;10.296;2024-03-08T06:21:04;12.98;;;7.63;;
48285;SDS011;34102;47.716;10.296;2024-03-08T06:23:31;12.55;;;7.32;;
48285;SDS011;34102;47.716;10.296;2024-03-08T06:25:57;12.38;;;6.90;;
48285;SDS011;34102;47.716;10.296;2024-03-08T06:28:25;10.60;;;6.78;;
48285;SDS011;34102;47.716;10.296;2024-03-08T06:30:51;10.05;;;7.03;;
48285;SDS011;34102;47.716;10.296;2024-03-08T06:33:17;10.88;;;7.00;;
48285;SDS011;34102;47.716;10.296;2024-03-08T06:35:42;12.68;;;7.75;;
48285;SDS011;34102;47.716;10.296;2024-03-08T06:38:10;10.75;;;6.78;;
48285;SDS011;34102;47.716;10.296;2024-03-08T06:40:37;12.18;;;7.32;;
48285;SDS011;34102;47.716;10.296;2024-03-08T06:43:02;13.82;;;7.47;;
48285;SDS011;34102;47.716;10.296;2024-03-08T06:45:32;12.30;;;6.57;;
48285;SDS011;34102;47.716;10.296;2024-03-08T06:47:57;11.65;;;6.63;;
48285;SDS011;34102;47.716;10.296;2024-03-08T06:50:22;14.68;;;7.97;;
48285;SDS011;34102;47.716;10.296;2024-03-08T06:52:48;13.13;;;8.57;;
48285;SDS011;34102;47.716;10.296;2024-03-08T06:55:20;12.07;;;7.20;;
48285;SDS011;34102;47.716;10.296;2024-03-08T06:57:46;10.27;;;6.70;;
48285;SDS011;34102;47.716;10.296;2024-03-08T11:05:58;10.50;;;6.32;;
48285;SDS011;34102;47.716;10.296;2024-03-08T11:08:26;9.95;;;6.07;;
48285;SDS011;34102;47.716;10.296;2024-03-08T11:10:52;10.20;;;6.55;;
48285;SDS011;34102;47.716;10.296;2024-03-08T11:16:07;8.50;;;5.93;;
48285;SDS011;34102;47.716;10.296;2024-03-08T11:18:36;9.93;;;6.35;;
48285;SDS011;34102;47.716;10.296;2024-03-08T11:21:09;9.25;;;6.32;;
48285;SDS011;34102;47.716;10.296;2024-03-08T11:26:52;9.90;;;6.45;;
48285;SDS011;34102;47.716;10.296;2024-03-08T11:32:35;11.30;;;7.30;;
48285;SDS011;34102;47.716;10.296;2024-03-08T11:34:48;10.10;;;6.60;;
48285;SDS011;34102;47.716;10.296;2024-03-08T11:37:17;11.88;;;7.18;;
48285;SDS011;34102;47.716;10.296;2024-03-08T11:39:51;10.70;;;7.28;;
48285;SDS011;34102;47.716;10.296;2024-03-08T11:42:32;16.98;;;7.03;;
48285;SDS011;34102;47.716;10.296;2024-03-08T11:45:00;10.13;;;6.72;;
48285;SDS011;34102;47.716;10.296;2024-03-08T11:47:35;10.45;;;6.72;;
48285;SDS011;34102;47.716;10.296;2024-03-08T11:50:02;13.68;;;8.30;;
48285;SDS011;34102;47.716;10.296;2024-03-08T11:52:36;11.02;;;7.63;;
48285;SDS011;34102;47.716;10.296;2024-03-08T11:55:11;14.23;;;7.43;;
48285;SDS011;34102;47.716;10.296;2024-03-08T11:57:39;10.43;;;7.10;;
48285;SDS011;34102;47.716;10.296;2024-03-08T12:00:16;10.82;;;7.95;;
48285;SDS011;34102;47.716;10.296;2024-03-08T12:06:18;10.95;;;6.70;;
48285;SDS011;34102;47.716;10.296;2024-03-08T12:08:45;12.95;;;8.43;;
48285;SDS011;34102;47.716;10.296;2024-03-08T12:11:19;12.43;;;7.60;;
48285;SDS011;34102;47.716;10.296;2024-03-08T12:14:06;11.75;;;6.90;;
48285;SDS011;34102;47.716;10.296;2024-03-08T12:16:31;10.95;;;7.15;;
48285;SDS011;34102;47.716;10.296;2024-03-08T12:18:59;12.00;;;7.10;;
48285;SDS011;34102;47.716;10.296;2024-03-08T12:21:27;10.07;;;7.32;;
48285;SDS011;34102;47.716;10.296;2024-03-08T12:24:02;10.77;;;7.60;;
48285;SDS011;34102;47.716;10.296;2024-03-08T12:26:47;11.48;;;7.00;;
48285;SDS011;34102;47.716;10.296;2024-03-08T12:29:20;11.73;;;7.70;;
48285;SDS011;34102;47.716;10.296;2024-03-08T12:31:56;10.02;;;7.28;;
48285;SDS011;34102;47.716;10.296;2024-03-08T12:34:31;11.52;;;7.10;;
48285;SDS011;34102;47.716;10.296;2024-03-08T12:37:03;13.18;;;7.95;;
48285;SDS011;34102;47.716;10.296;2024-03-08T12:39:40;10.57;;;7.80;;
48285;SDS011;34102;47.716;10.296;2024-03-08T12:42:06;14.00;;;8.57;;
48285;SDS011;34102;47.716;10.296;2024-03-08T12:44:35;16.13;;;8.85;;
48285;SDS011;34102;47.716;10.296;2024-03-08T12:47:09;13.40;;;7.80;;
48285;SDS011;34102;47.716;10.296;2024-03-08T12:52:13;12.43;;;8.85;;
48285;SDS011;34102;47.716;10.296;2024-03-08T12:54:41;11.45;;;7.60;;
48285;SDS011;34102;47.716;10.296;2024-03-08T12:57:09;13.80;;;8.13;;
48285;SDS011;34102;47.716;10.296;2024-03-08T12:59:36;12.15;;;7.65;;
48285;SDS011;34102;47.716;10.296;2024-03-08T13:02:03;13.00;;;7.93;;
48285;SDS011;34102;47.716;10.296;2024-03-08T13:04:30;14.30;;;9.32;;
48285;SDS011;34102;47.716;10.296;2024-03-08T13:07:05;11.60;;;8.27;;
48285;SDS011;34102;47.716;10.296;2024-03-08T13:09:32;12.48;;;8.27;;
48285;SDS011;34102;47.716;10.296;2024-03-08T13:12:09;12.88;;;8.88;;
48285;SDS011;34102;47.716;10.296;2024-03-08T13:14:36;13.00;;;8.80;;
48285;SDS011;34102;47.716;10.296;2024-03-08T13:17:03;13.30;;;8.57;;
48285;SDS011;34102;47.716;10.296;2024-03-08T13:19:32;13.85;;;8.25;;
48285;SDS011;34102;47.716;10.296;2024-03-08T13:22:18;13.43;;;8.50;;
48285;SDS011;34102;47.716;10.296;2024-03-08T13:24:52;14.68;;;9.50;;
48285;SDS011;34102;47.716;10.296;2024-03-08T13:27:18;14.98;;;10.02;;
48285;SDS011;34102;47.716;10.296;2024-03-08T13:29:51;13.48;;;8.38;;
48285;SDS011;34102;47.716;10.296;2024-03-08T13:32:20;14.73;;;8.93;;
48285;SDS011;34102;47.716;10.296;2024-03-08T13:34:51;15.25;;;9.80;;
48285;SDS011;34102;47.716;10.296;2024-03-08T13:37:21;13.77;;;8.88;;
48285;SDS011;34102;47.716;10.296;2024-03-08T13:39:49;15.27;;;9.80;;
48285;SDS011;34102;47.716;10.296;2024-03-08T13:42:17;13.10;;;8.85;;
48285;SDS011;34102;47.716;10.296;2024-03-08T13:44:48;13.02;;;9.32;;
48285;SDS011;34102;47.716;10.296;2024-03-08T13:47:15;15.57;;;10.93;;
48285;SDS011;34102;47.716;10.296;2024-03-08T13:50:16;14.20;;;9.60;;
48285;SDS011;34102;47.716;10.296;2024-03-08T13:53:08;15.05;;;9.85;;
48285;SDS011;34102;47.716;10.296;2024-03-08T13:55:43;16.50;;;10.15;;
48285;SDS011;34102;47.716;10.296;2024-03-08T13:58:15;14.48;;;9.68;;
48285;SDS011;34102;47.716;10.296;2024-03-08T14:00:42;15.50;;;10.07;;
48285;SDS011;34102;47.716;10.296;2024-03-08T14:03:16;13.85;;;8.88;;
48285;SDS011;34102;47.716;10.296;2024-03-08T14:05:44;15.20;;;9.32;;
48285;SDS011;34102;47.716;10.296;2024-03-08T14:08:25;14.50;;;9.55;;
48285;SDS011;34102;47.716;10.296;2024-03-08T14:11:05;15.45;;;10.38;;
48285;SDS011;34102;47.716;10.296;2024-03-08T14:13:48;14.50;;;9.00;;
48285;SDS011;34102;47.716;10.296;2024-03-08T14:16:26;13.38;;;8.75;;
48285;SDS011;34102;47.716;10.296;2024-03-08T14:18:53;12.15;;;8.30;;
48285;SDS011;34102;47.716;10.296;2024-03-08T14:21:22;14.75;;;9.18;;
48285;SDS011;34102;47.716;10.296;2024-03-08T14:23:52;14.52;;;9.00;;
48285;SDS011;34102;47.716;10.296;2024-03-08T14:26:24;16.20;;;9.38;;
48285;SDS011;34102;47.716;10.296;2024-03-08T14:28:54;13.65;;;8.50;;
48285;SDS011;34102;47.716;10.296;2024-03-08T14:31:22;13.13;;;8.50;;
48285;SDS011;34102;47.716;10.296;2024-03-08T14:33:55;14.68;;;9.10;;
48285;SDS011;34102;47.716;10.296;2024-03-08T14:36:34;14.23;;;9.25;;
48285;SDS011;34102;47.716;10.296;2024-03-08T14:39:09;18.48;;;8.75;;
48285;SDS011;34102;47.716;10.296;2024-03-08T14:41:37;13.38;;;9.05;;
48285;SDS011;34102;47.716;10.296;2024-03-08T14:44:07;15.45;;;9.90;;
48285;SDS011;34102;47.716;10.296;2024-03-08T14:46:35;14.50;;;9.70;;
48285;SDS011;34102;47.716;10.296;2024-03-08T14:49:11;14.75;;;9.05;;
48285;SDS011;34102;47.716;10.296;2024-03-08T14:51:38;14.30;;;9.25;;
48285;SDS011;34102;47.716;10.296;2024-03-08T14:54:04;12.95;;;8.98;;
48285;SDS011;34102;47.716;10.296;2024-03-08T14:56:39;12.93;;;9.30;;
48285;SDS011;34102;47.716;10.296;2024-03-08T14:59:16;14.60;;;9.43;;
48285;SDS011;34102;47.716;10.296;2024-03-08T15:01:44;14.13;;;9.82;;
48285;SDS011;34102;47.716;10.296;2024-03-08T15:04:11;17.27;;;10.45;;
48285;SDS011;34102;47.716;10.296;2024-03-08T15:06:45;15.75;;;9.60;;
48285;SDS011;34102;47.716;10.296;2024-03-08T15:09:17;14.32;;;9.90;;
48285;SDS011;34102;47.716;10.296;2024-03-08T15:11:46;16.80;;;11.63;;
48285;SDS011;34102;47.716;10.296;2024-03-08T15:14:25;15.20;;;9.55;;
48285;SDS011;34102;47.716;10.296;2024-03-08T15:16:54;16.15;;;10.35;;
48285;SDS011;34102;47.716;10.296;2024-03-08T15:19:22;16.55;;;8.85;;
48285;SDS011;34102;47.716;10.296;2024-03-08T15:21:53;14.38;;;9.18;;
48285;SDS011;34102;47.716;10.296;2024-03-08T15:24:24;13.13;;;9.30;;
48285;SDS011;34102;47.716;10.296;2024-03-08T15:27:03;16.47;;;10.00;;
48285;SDS011;34102;47.716;10.296;2024-03-08T15:29:46;15.88;;;9.68;;
48285;SDS011;34102;47.716;10.296;2024-03-08T15:32:17;15.05;;;9.15;;
48285;SDS011;34102;47.716;10.296;2024-03-08T15:34:46;14.27;;;8.88;;
48285;SDS011;34102;47.716;10.296;2024-03-08T15:37:16;13.52;;;7.93;;
48285;SDS011;34102;47.716;10.296;2024-03-08T15:40:12;14.52;;;9.02;;
48285;SDS011;34102;47.716;10.296;2024-03-08T15:42:59;12.07;;;8.82;;
48285;SDS011;34102;47.716;10.296;2024-03-08T15:45:25;13.00;;;9.18;;
48285;SDS011;34102;47.716;10.296;2024-03-08T15:47:53;12.07;;;9.00;;
48285;SDS011;34102;47.716;10.296;2024-03-08T15:50:22;12.55;;;8.90;;
48285;SDS011;34102;47.716;10.296;2024-03-08T15:52:49;13.93;;;8.95;;
48285;SDS011;34102;47.716;10.296;2024-03-08T15:55:19;13.82;;;9.07;;
48285;SDS011;34102;47.716;10.296;2024-03-08T15:57:46;14.70;;;9.68;;
48285;SDS011;34102;47.716;10.296;2024-03-08T16:00:15;16.63;;;8.82;;
48285;SDS011;34102;47.716;10.296;2024-03-08T16:02:59;15.13;;;8.07;;
48285;SDS011;34102;47.716;10.296;2024-03-08T16:05:25;13.25;;;8.55;;
48285;SDS011;34102;47.716;10.296;2024-03-08T16:07:53;14.30;;;8.57;;
48285;SDS011;34102;47.716;10.296;2024-03-08T16:10:21;15.07;;;9.35;;
48285;SDS011;34102;47.716;10.296;2024-03-08T16:12:50;16.48;;;9.32;;
48285;SDS011;34102;47.716;10.296;2024-03-08T16:15:16;15.27;;;8.02;;
48285;SDS011;34102;47.716;10.296;2024-03-08T16:17:47;16.02;;;8.13;;
48285;SDS011;34102;47.716;10.296;2024-03-08T16:20:18;15.63;;;8.05;;
48285;SDS011;34102;47.716;10.296;2024-03-08T16:22:48;12.05;;;8.00;;
48285;SDS011;34102;47.716;10.296;2024-03-08T16:25:27;13.15;;;7.80;;
48285;SDS011;34102;47.716;10.296;2024-03-08T16:27:56;14.25;;;8.77;;
48285;SDS011;34102;47.716;10.296;2024-03-08T16:30:23;11.50;;;8.02;;
48285;SDS011;34102;47.716;10.296;2024-03-08T16:32:49;14.60;;;8.52;;
48285;SDS011;34102;47.716;10.296;2024-03-08T16:35:32;12.98;;;8.57;;
48285;SDS011;34102;47.716;10.296;2024-03-08T16:38:03;13.90;;;8.98;;
48285;SDS011;34102;47.716;10.296;2024-03-08T16:40:30;15.60;;;8.80;;
48285;SDS011;34102;47.716;10.296;2024-03-08T16:42:59;13.48;;;8.05;;
48285;SDS011;34102;47.716;10.296;2024-03-08T16:45:27;15.45;;;9.27;;
48285;SDS011;34102;47.716;10.296;2024-03-08T16:47:58;12.70;;;8.02;;
48285;SDS011;34102;47.716;10.296;2024-03-08T16:50:24;12.80;;;8.55;;
48285;SDS011;34102;47.716;10.296;2024-03-08T16:52:57;12.02;;;8.98;;
48285;SDS011;34102;47.716;10.296;2024-03-08T16:55:26;13.73;;;8.35;;
48285;SDS011;34102;47.716;10.296;2024-03-08T16:57:52;13.43;;;9.10;;
48285;SDS011;34102;47.716;10.296;2024-03-08T17:00:28;15.50;;;8.25;;
48285;SDS011;34102;47.716;10.296;2024-03-08T17:03:08;14.93;;;9.55;;
48285;SDS011;34102;47.716;10.296;2024-03-08T17:05:37;16.38;;;9.63;;
48285;SDS011;34102;47.716;10.296;2024-03-08T17:08:11;13.65;;;8.70;;
48285;SDS011;34102;47.716;10.296;2024-03-08T17:10:37;13.80;;;9.23;;
48285;SDS011;34102;47.716;10.296;2024-03-08T17:13:06;14.52;;;9.55;;
48285;SDS011;34102;47.716;10.296;2024-03-08T17:15:36;16.80;;;8.82;;
48285;SDS011;34102;47.716;10.296;2024-03-08T17:18:03;16.75;;;9.63;;
48285;SDS011;34102;47.716;10.296;2024-03-08T17:20:34;15.25;;;8.75;;
48285;SDS011;34102;47.716;10.296;2024-03-08T17:23:05;14.93;;;9.35;;
48285;SDS011;34102;47.716;10.296;2024-03-08T17:25:33;15.13;;;10.02;;
48285;SDS011;34102;47.716;10.296;2024-03-08T17:28:01;16.48;;;9.35;;
48285;SDS011;34102;47.716;10.296;2024-03-08T17:30:31;14.77;;;8.85;;
48285;SDS011;34102;47.716;10.296;2024-03-08T17:33:04;18.15;;;10.45;;
48285;SDS011;34102;47.716;10.296;2024-03-08T17:35:51;21.88;;;11.02;;
48285;SDS011;34102;47.716;10.296;2024-03-08T17:38:20;16.98;;;9.68;;
48285;SDS011;34102;47.716;10.296;2024-03-08T17:40:48;16.20;;;9.75;;
48285;SDS011;34102;47.716;10.296;2024-03-08T17:43:15;17.48;;;10.25;;
48285;SDS011;34102;47.716;10.296;2024-03-08T17:45:48;16.92;;;10.10;;
48285;SDS011;34102;47.716;10.296;2024-03-08T17:48:18;17.63;;;10.13;;
48285;SDS011;34102;47.716;10.296;2024-03-08T17:50:46;19.05;;;10.52;;
48285;SDS011;34102;47.716;10.296;2024-03-08T17:53:15;18.70;;;9.60;;
48285;SDS011;34102;47.716;10.296;2024-03-08T17:55:40;17.17;;;9.82;;
48285;SDS011;34102;47.716;10.296;2024-03-08T17:58:07;15.95;;;10.15;;
48285;SDS011;34102;47.716;10.296;2024-03-08T18:00:35;21.30;;;12.63;;
48285;SDS011;34102;47.716;10.296;2024-03-08T18:03:03;24.10;;;12.43;;
48285;SDS011;34102;47.716;10.296;2024-03-08T18:05:37;18.90;;;10.98;;
48285;SDS011;34102;47.716;10.296;2024-03-08T18:08:07;21.35;;;11.32;;
48285;SDS011;34102;47.716;10.296;2024-03-08T18:10:36;18.70;;;10.65;;
48285;SDS011;34102;47.716;10.296;2024-03-08T18:13:04;19.17;;;11.20;;
48285;SDS011;34102;47.716;10.296;2024-03-08T18:15:42;19.13;;;11.35;;
48285;SDS011;34102;47.716;10.296;2024-03-08T18:18:13;19.92;;;11.82;;
48285;SDS011;34102;47.716;10.296;2024-03-08T18:20:42;23.10;;;11.77;;
48285;SDS011;34102;47.716;10.296;2024-03-08T18:23:11;20.80;;;12.18;;
48285;SDS011;34102;47.716;10.296;2024-03-08T18:25:43;24.80;;;12.95;;
48285;SDS011;34102;47.716;10.296;2024-03-08T18:28:10;22.70;;;12.65;;
48285;SDS011;34102;47.716;10.296;2024-03-08T18:30:38;21.05;;;12.77;;
48285;SDS011;34102;47.716;10.296;2024-03-08T18:33:06;22.02;;;13.25;;
48285;SDS011;34102;47.716;10.296;2024-03-08T18:35:42;24.38;;;13.60;;
48285;SDS011;34102;47.716;10.296;2024-03-08T18:38:09;18.27;;;11.80;;
48285;SDS011;34102;47.716;10.296;2024-03-08T18:40:34;20.67;;;12.93;;
48285;SDS011;34102;47.716;10.296;2024-03-08T18:43:00;21.80;;;12.63;;
48285;SDS011;34102;47.716;10.296;2024-03-08T18:45:29;23.83;;;13.40;;
48285;SDS011;34102;47.716;10.296;2024-03-08T18:47:56;23.15;;;12.48;;
48285;SDS011;34102;47.716;10.296;2024-03-08T18:50:25;22.58;;;12.40;;
48285;SDS011;34102;47.716;10.296;2024-03-08T18:52:54;22.30;;;12.93;;
48285;SDS011;34102;47.716;10.296;2024-03-08T18:55:23;20.15;;;11.45;;
48285;SDS011;34102;47.716;10.296;2024-03-08T18:57:51;22.33;;;11.82;;
48285;SDS011;34102;47.716;10.296;2024-03-08T19:00:19;18.98;;;12.13;;
48285;SDS011;34102;47.716;10.296;2024-03-08T19:03:00;21.90;;;12.35;;
48285;SDS011;34102;47.716;10.296;2024-03-08T19:05:31;23.98;;;12.70;;
48285;SDS011;34102;47.716;10.296;2024-03-08T19:08:02;22.33;;;12.73;;
48285;SDS011;34102;47.716;10.296;2024-03-08T19:10:33;20.85;;;12.23;;
48285;SDS011;34102;47.716;10.296;2024-03-08T19:13:00;23.23;;;13.43;;
48285;SDS011;34102;47.716;10.296;2024-03-08T19:15:29;22.58;;;13.02;;
48285;SDS011;34102;47.716;10.296;2024-03-08T19:18:04;22.70;;;13.13;;
48285;SDS011;34102;47.716;10.296;2024-03-08T19:20:40;22.77;;;13.38;;
48285;SDS011;34102;47.716;10.296;2024-03-08T19:23:10;23.05;;;12.85;;
48285;SDS011;34102;47.716;10.296;2024-03-08T19:25:37;21.42;;;12.52;;
48285;SDS011;34102;47.716;10.296;2024-03-08T19:28:07;20.17;;;12.07;;
48285;SDS011;34102;47.716;10.296;2024-03-08T19:30:34;18.90;;;11.90;;
48285;SDS011;34102;47.716;10.296;2024-03-08T19:33:08;23.90;;;13.82;;
48285;SDS011;34102;47.716;10.296;2024-03-08T19:35:39;24.30;;;13.40;;
48285;SDS011;34102;47.716;10.296;2024-03-08T19:38:06;24.98;;;11.82;;
48285;SDS011;34102;47.716;10.296;2024-03-08T19:40:37;26.58;;;13.18;;
48285;SDS011;34102;47.716;10.296;2024-03-08T19:43:09;28.55;;;13.75;;
48285;SDS011;34102;47.716;10.296;2024-03-08T19:45:37;23.80;;;13.80;;
48285;SDS011;34102;47.716;10.296;2024-03-08T19:48:09;22.48;;;13.23;;
48285;SDS011;34102;47.716;10.296;2024-03-08T19:50:42;22.27;;;13.98;;
48285;SDS011;34102;47.716;10.296;2024-03-08T19:53:08;22.02;;;12.38;;
48285;SDS011;34102;47.716;10.296;2024-03-08T19:55:37;23.10;;;12.15;;
48285;SDS011;34102;47.716;10.296;2024-03-08T19:58:04;20.38;;;11.68;;
48285;SDS011;34102;47.716;10.296;2024-03-08T20:00:32;23.35;;;12.25;;
48285;SDS011;34102;47.716;10.296;2024-03-08T20:03:04;21.67;;;13.15;;
48285;SDS011;34102;47.716;10.296;2024-03-08T20:05:30;22.30;;;12.43;;
48285;SDS011;34102;47.716;10.296;2024-03-08T20:07:56;21.55;;;13.43;;
48285;SDS011;34102;47.716;10.296;2024-03-08T20:10:29;21.08;;;12.52;;
48285;SDS011;34102;47.716;10.296;2024-03-08T20:12:55;21.05;;;12.68;;
48285;SDS011;34102;47.716;10.296;2024-03-08T20:15:22;18.83;;;11.82;;
48285;SDS011;34102;47.716;10.296;2024-03-08T20:17:52;19.52;;;12.00;;
48285;SDS011;34102;47.716;10.296;2024-03-08T20:20:22;22.73;;;12.82;;
48285;SDS011;34102;47.716;10.296;2024-03-08T20:22:48;20.42;;;11.35;;
48285;SDS011;34102;47.716;10.296;2024-03-08T20:25:16;22.23;;;12.63;;
48285;SDS011;34102;47.716;10.296;2024-03-08T20:27:49;21.05;;;11.50;;
48285;SDS011;34102;47.716;10.296;2024-03-08T20:30:17;19.40;;;11.10;;
48285;SDS011;34102;47.716;10.296;2024-03-08T20:32:53;21.53;;;12.47;;
48285;SDS011;34102;47.716;10.296;2024-03-08T20:35:30;22.73;;;12.15;;
48285;SDS011;34102;47.716;10.296;2024-03-08T20:38:00;21.15;;;12.43;;
48285;SDS011;34102;47.716;10.296;2024-03-08T20:40:27;21.77;;;12.15;;
48285;SDS011;34102;47.716;10.296;2024-03-08T20:43:08;23.95;;;13.27;;
48285;SDS011;34102;47.716;10.296;2024-03-08T20:45:35;24.33;;;13.77;;
48285;SDS011;34102;47.716;10.296;2024-03-08T20:48:02;23.67;;;12.93;;
48285;SDS011;34102;47.716;10.296;2024-03-08T20:50:28;23.85;;;13.27;;
48285;SDS011;34102;47.716;10.296;2024-03-08T20:52:54;27.35;;;15.13;;
48285;SDS011;34102;47.716;10.296;2024-03-08T20:55:21;23.35;;;14.63;;
48285;SDS011;34102;47.716;10.296;2024-03-08T20:57:48;25.42;;;15.18;;
48285;SDS011;34102;47.716;10.296;2024-03-08T21:00:20;22.58;;;13.48;;
48285;SDS011;34102;47.716;10.296;2024-03-08T21:03:04;25.02;;;14.77;;
48285;SDS011;34102;47.716;10.296;2024-03-08T21:05:34;23.90;;;14.20;;
48285;SDS011;34102;47.716;10.296;2024-03-08T21:08:01;23.40;;;13.63;;
48285;SDS011;34102;47.716;10.296;2024-03-08T21:10:35;26.45;;;14.75;;
48285;SDS011;34102;47.716;10.296;2024-03-08T21:13:02;23.50;;;14.50;;
48285;SDS011;34102;47.716;10.296;2024-03-08T21:15:30;26.20;;;13.65;;
48285;SDS011;34102;47.716;10.296;2024-03-08T21:17:58;24.23;;;14.05;;
48285;SDS011;34102;47.716;10.296;2024-03-08T21:20:24;24.05;;;13.77;;
48285;SDS011;34102;47.716;10.296;2024-03-08T21:22:53;24.40;;;14.50;;
48285;SDS011;34102;47.716;10.296;2024-03-08T21:25:21;25.92;;;13.95;;
48285;SDS011;34102;47.716;10.296;2024-03-08T21:27:48;25.73;;;14.20;;
48285;SDS011;34102;47.716;10.296;2024-03-08T21:30:16;24.42;;;13.00;;
48285;SDS011;34102;47.716;10.296;2024-03-08T21:32:43;25.75;;;13.05;;
48285;SDS011;34102;47.716;10.296;2024-03-08T21:35:09;21.50;;;12.43;;
48285;SDS011;34102;47.716;10.296;2024-03-08T21:37:37;25.50;;;13.93;;
48285;SDS011;34102;47.716;10.296;2024-03-08T21:40:03;20.80;;;12.50;;
48285;SDS011;34102;47.716;10.296;2024-03-08T21:42:36;24.88;;;14.23;;
48285;SDS011;34102;47.716;10.296;2024-03-08T21:45:06;22.70;;;12.48;;
48285;SDS011;34102;47.716;10.296;2024-03-08T21:47:31;24.58;;;14.25;;
48285;SDS011;34102;47.716;10.296;2024-03-08T21:49:59;22.30;;;12.32;;
48285;SDS011;34102;47.716;10.296;2024-03-08T21:52:25;20.98;;;12.82;;
48285;SDS011;34102;47.716;10.296;2024-03-08T21:54:50;19.88;;;11.90;;
48285;SDS011;34102;47.716;10.296;2024-03-08T21:57:16;24.48;;;12.77;;
48285;SDS011;34102;47.716;10.296;2024-03-08T22:00:05;25.73;;;13.90;;
48285;SDS011;34102;47.716;10.296;2024-03-08T22:02:39;24.77;;;13.25;;
48285;SDS011;34102;47.716;10.296;2024-03-08T22:05:04;23.40;;;13.20;;
48285;SDS011;34102;47.716;10.296;2024-03-08T22:07:34;22.33;;;12.35;;
48285;SDS011;34102;47.716;10.296;2024-03-08T22:10:05;23.85;;;13.45;;
48285;SDS011;34102;47.716;10.296;2024-03-08T22:12:31;26.92;;;13.63;;
48285;SDS011;34102;47.716;10.296;2024-03-08T22:14:58;24.40;;;12.63;;
48285;SDS011;34102;47.716;10.296;2024-03-08T22:17:25;21.88;;;12.27;;
48285;SDS011;34102;47.716;10.296;2024-03-08T22:19:53;23.27;;;12.88;;
48285;SDS011;34102;47.716;10.296;2024-03-08T22:22:20;21.58;;;12.82;;
48285;SDS011;34102;47.716;10.296;2024-03-08T22:24:49;21.55;;;12.73;;
48285;SDS011;34102;47.716;10.296;2024-03-08T22:27:24;21.98;;;12.45;;
48285;SDS011;34102;47.716;10.296;2024-03-08T22:29:49;21.95;;;12.70;;
48285;SDS011;34102;47.716;10.296;2024-03-08T22:32:21;24.38;;;12.88;;
48285;SDS011;34102;47.716;10.296;2024-03-08T22:34:46;23.05;;;12.32;;
48285;SDS011;34102;47.716;10.296;2024-03-08T22:37:12;23.83;;;13.38;;